Gengma, China
Current Conditions -  °F | °C
As of 4:00 AM on Monday 24 Nov 2014 (Local Time) from ZPPP Reporting Station
Clear Clear  
Wind Chill: 41°   Ceiling: Unl
Heat Index: 46°   Visibility: 6mi
Dew Point: 45°   Wind: 11mph
Humidity: 93%   Direction: 220°SW
Pressure: 30.15"   Gusts: NA
Location:  23.55°N, 99.4°E
Report Text: ZPPP 232000Z 22005MPS CAVOK 08/07 Q1021 NOSIG
Loading
Personal Weather Stations






























Interactive Weather Map New forecast layout! Learn more

10-Day Weather Forecast

Advertisements
Track Severe Weather on mobile